sensor_id;sensor_type;location;lat;lon;timestamp;temperature;humidity
20524;DHT22;10420;48.542;12.270;2023-04-03T00:03:06;3.50;99.90
20524;DHT22;10420;48.542;12.270;2023-04-03T00:08:07;3.50;99.90
20524;DHT22;10420;48.542;12.270;2023-04-03T00:13:10;3.40;99.90
20524;DHT22;10420;48.542;12.270;2023-04-03T00:18:10;3.40;99.90
20524;DHT22;10420;48.542;12.270;2023-04-03T00:23:11;3.40;99.90
20524;DHT22;10420;48.542;12.270;2023-04-03T00:28:12;3.50;99.90
20524;DHT22;10420;48.542;12.270;2023-04-03T00:33:13;3.60;99.90
20524;DHT22;10420;48.542;12.270;2023-04-03T00:38:14;3.40;99.90
20524;DHT22;10420;48.542;12.270;2023-04-03T00:43:21;3.50;99.90
20524;DHT22;10420;48.542;12.270;2023-04-03T00:48:31;3.50;99.90
20524;DHT22;10420;48.542;12.270;2023-04-03T00:53:37;3.40;99.90
20524;DHT22;10420;48.542;12.270;2023-04-03T00:58:46;3.40;99.90
20524;DHT22;10420;48.542;12.270;2023-04-03T01:03:47;3.50;99.90
20524;DHT22;10420;48.542;12.270;2023-04-03T01:08:49;3.50;99.90
20524;DHT22;10420;48.542;12.270;2023-04-03T01:13:50;3.40;99.90
20524;DHT22;10420;48.542;12.270;2023-04-03T01:18:51;3.40;99.90
20524;DHT22;10420;48.542;12.270;2023-04-03T01:29:05;3.50;99.90
20524;DHT22;10420;48.542;12.270;2023-04-03T01:34:05;3.50;99.90
20524;DHT22;10420;48.542;12.270;2023-04-03T01:39:06;3.30;99.90
20524;DHT22;10420;48.542;12.270;2023-04-03T01:44:07;3.30;99.90
20524;DHT22;10420;48.542;12.270;2023-04-03T01:49:08;3.30;99.90
20524;DHT22;10420;48.542;12.270;2023-04-03T01:54:08;3.30;99.90
20524;DHT22;10420;48.542;12.270;2023-04-03T01:59:09;3.20;99.90
20524;DHT22;10420;48.542;12.270;2023-04-03T02:04:10;3.20;99.90
20524;DHT22;10420;48.542;12.270;2023-04-03T02:09:11;3.30;99.90
20524;DHT22;10420;48.542;12.270;2023-04-03T02:14:12;3.40;99.90
20524;DHT22;10420;48.542;12.270;2023-04-03T02:19:14;3.50;99.90
20524;DHT22;10420;48.542;12.270;2023-04-03T02:24:14;3.50;99.90
20524;DHT22;10420;48.542;12.270;2023-04-03T02:29:15;3.50;99.90
20524;DHT22;10420;48.542;12.270;2023-04-03T02:34:16;3.50;99.90
20524;DHT22;10420;48.542;12.270;2023-04-03T02:39:17;3.40;99.90
20524;DHT22;10420;48.542;12.270;2023-04-03T02:44:17;3.30;99.90
20524;DHT22;10420;48.542;12.270;2023-04-03T02:49:19;3.20;99.90
20524;DHT22;10420;48.542;12.270;2023-04-03T02:54:20;3.40;99.90
20524;DHT22;10420;48.542;12.270;2023-04-03T02:59:21;3.40;99.90
20524;DHT22;10420;48.542;12.270;2023-04-03T03:04:22;3.40;99.90
20524;DHT22;10420;48.542;12.270;2023-04-03T03:09:22;3.30;99.90
20524;DHT22;10420;48.542;12.270;2023-04-03T03:14:23;3.40;99.90
20524;DHT22;10420;48.542;12.270;2023-04-03T03:19:24;3.30;99.90
20524;DHT22;10420;48.542;12.270;2023-04-03T03:24:25;3.30;99.90
20524;DHT22;10420;48.542;12.270;2023-04-03T03:29:25;3.30;99.90
20524;DHT22;10420;48.542;12.270;2023-04-03T03:34:26;3.30;99.90
20524;DHT22;10420;48.542;12.270;2023-04-03T03:39:26;3.30;99.90
20524;DHT22;10420;48.542;12.270;2023-04-03T03:44:27;3.20;99.90
20524;DHT22;10420;48.542;12.270;2023-04-03T03:49:29;3.30;99.90
20524;DHT22;10420;48.542;12.270;2023-04-03T03:54:30;3.20;99.90
20524;DHT22;10420;48.542;12.270;2023-04-03T03:59:30;3.20;99.90
20524;DHT22;10420;48.542;12.270;2023-04-03T04:04:31;3.30;99.90
20524;DHT22;10420;48.542;12.270;2023-04-03T04:09:32;3.00;99.90
20524;DHT22;10420;48.542;12.270;2023-04-03T04:14:32;3.10;99.90
20524;DHT22;10420;48.542;12.270;2023-04-03T04:19:33;3.10;99.90
20524;DHT22;10420;48.542;12.270;2023-04-03T04:24:33;3.20;99.90
20524;DHT22;10420;48.542;12.270;2023-04-03T04:29:34;3.20;99.90
20524;DHT22;10420;48.542;12.270;2023-04-03T04:34:36;3.10;99.90
20524;DHT22;10420;48.542;12.270;2023-04-03T04:39:37;3.20;99.90
20524;DHT22;10420;48.542;12.270;2023-04-03T04:44:39;3.10;99.90
20524;DHT22;10420;48.542;12.270;2023-04-03T04:49:39;3.00;99.90
20524;DHT22;10420;48.542;12.270;2023-04-03T04:54:40;3.10;99.90
20524;DHT22;10420;48.542;12.270;2023-04-03T04:59:41;3.20;99.90
20524;DHT22;10420;48.542;12.270;2023-04-03T05:04:41;3.10;99.90
20524;DHT22;10420;48.542;12.270;2023-04-03T05:09:42;3.10;99.90
20524;DHT22;10420;48.542;12.270;2023-04-03T05:14:42;3.10;99.90
20524;DHT22;10420;48.542;12.270;2023-04-03T05:19:43;3.10;99.90
20524;DHT22;10420;48.542;12.270;2023-04-03T05:24:44;3.00;99.90
20524;DHT22;10420;48.542;12.270;2023-04-03T05:29:44;3.10;99.90
20524;DHT22;10420;48.542;12.270;2023-04-03T05:34:45;3.00;99.90
20524;DHT22;10420;48.542;12.270;2023-04-03T05:39:46;3.00;99.90
20524;DHT22;10420;48.542;12.270;2023-04-03T05:44:46;2.90;99.90
20524;DHT22;10420;48.542;12.270;2023-04-03T05:49:47;3.20;99.90
20524;DHT22;10420;48.542;12.270;2023-04-03T05:54:48;3.20;99.90
20524;DHT22;10420;48.542;12.270;2023-04-03T05:59:49;3.10;99.90
20524;DHT22;10420;48.542;12.270;2023-04-03T06:04:50;3.10;99.90
20524;DHT22;10420;48.542;12.270;2023-04-03T06:09:52;3.10;99.90
20524;DHT22;10420;48.542;12.270;2023-04-03T06:14:53;3.20;99.90
20524;DHT22;10420;48.542;12.270;2023-04-03T06:19:53;3.10;99.90
20524;DHT22;10420;48.542;12.270;2023-04-03T06:24:54;3.50;99.90
20524;DHT22;10420;48.542;12.270;2023-04-03T06:29:55;3.60;99.90
20524;DHT22;10420;48.542;12.270;2023-04-03T06:34:55;3.40;99.90
20524;DHT22;10420;48.542;12.270;2023-04-03T06:39:57;3.40;99.90
20524;DHT22;10420;48.542;12.270;2023-04-03T06:44:58;3.20;99.90
20524;DHT22;10420;48.542;12.270;2023-04-03T06:49:58;3.30;99.90
20524;DHT22;10420;48.542;12.270;2023-04-03T06:54:59;3.60;99.90
20524;DHT22;10420;48.542;12.270;2023-04-03T07:00:01;4.00;99.90
20524;DHT22;10420;48.542;12.270;2023-04-03T07:05:02;3.90;99.90
20524;DHT22;10420;48.542;12.270;2023-04-03T07:10:03;3.80;99.90
20524;DHT22;10420;48.542;12.270;2023-04-03T07:15:05;3.90;99.90
20524;DHT22;10420;48.542;12.270;2023-04-03T07:20:07;4.20;99.90
20524;DHT22;10420;48.542;12.270;2023-04-03T07:25:08;3.90;99.90
20524;DHT22;10420;48.542;12.270;2023-04-03T07:30:09;4.10;99.90
20524;DHT22;10420;48.542;12.270;2023-04-03T07:35:10;3.90;99.90
20524;DHT22;10420;48.542;12.270;2023-04-03T07:40:10;4.00;99.90
20524;DHT22;10420;48.542;12.270;2023-04-03T07:45:11;4.30;99.90
20524;DHT22;10420;48.542;12.270;2023-04-03T07:50:12;4.50;99.90
20524;DHT22;10420;48.542;12.270;2023-04-03T07:55:12;4.70;99.90
20524;DHT22;10420;48.542;12.270;2023-04-03T08:00:13;4.60;99.90
20524;DHT22;10420;48.542;12.270;2023-04-03T08:05:14;4.80;99.90
20524;DHT22;10420;48.542;12.270;2023-04-03T08:10:15;4.40;99.90
20524;DHT22;10420;48.542;12.270;2023-04-03T08:15:16;4.90;99.90
20524;DHT22;10420;48.542;12.270;2023-04-03T08:20:17;4.90;99.90
20524;DHT22;10420;48.542;12.270;2023-04-03T08:25:17;5.30;99.90
20524;DHT22;10420;48.542;12.270;2023-04-03T08:30:18;5.30;99.90
20524;DHT22;10420;48.542;12.270;2023-04-03T08:35:19;5.10;99.90
20524;DHT22;10420;48.542;12.270;2023-04-03T08:40:20;5.70;99.90
20524;DHT22;10420;48.542;12.270;2023-04-03T08:46:07;5.40;99.90
20524;DHT22;10420;48.542;12.270;2023-04-03T08:50:54;5.90;99.90
20524;DHT22;10420;48.542;12.270;2023-04-03T08:55:57;5.50;99.90
20524;DHT22;10420;48.542;12.270;2023-04-03T09:01:19;5.70;99.90
20524;DHT22;10420;48.542;12.270;2023-04-03T09:06:30;5.70;99.90
20524;DHT22;10420;48.542;12.270;2023-04-03T09:16:52;5.40;99.90
20524;DHT22;10420;48.542;12.270;2023-04-03T09:21:57;5.50;99.90
20524;DHT22;10420;48.542;12.270;2023-04-03T09:27:01;5.70;99.90
20524;DHT22;10420;48.542;12.270;2023-04-03T09:37:47;6.90;99.90
20524;DHT22;10420;48.542;12.270;2023-04-03T09:42:49;6.90;99.90
20524;DHT22;10420;48.542;12.270;2023-04-03T09:48:07;8.80;99.90
20524;DHT22;10420;48.542;12.270;2023-04-03T09:58:40;8.20;99.90
20524;DHT22;10420;48.542;12.270;2023-04-03T10:03:42;8.20;99.90
20524;DHT22;10420;48.542;12.270;2023-04-03T10:09:03;9.60;99.90
20524;DHT22;10420;48.542;12.270;2023-04-03T10:14:04;9.80;99.90
20524;DHT22;10420;48.542;12.270;2023-04-03T10:19:35;9.30;99.90
20524;DHT22;10420;48.542;12.270;2023-04-03T10:25:04;8.70;99.90
20524;DHT22;10420;48.542;12.270;2023-04-03T10:36:20;8.70;99.90
20524;DHT22;10420;48.542;12.270;2023-04-03T10:46:52;8.70;99.90
20524;DHT22;10420;48.542;12.270;2023-04-03T10:52:15;8.00;99.90
20524;DHT22;10420;48.542;12.270;2023-04-03T10:57:18;7.60;99.90
20524;DHT22;10420;48.542;12.270;2023-04-03T11:02:28;8.50;99.90
20524;DHT22;10420;48.542;12.270;2023-04-03T11:07:36;8.80;99.90
20524;DHT22;10420;48.542;12.270;2023-04-03T11:12:48;7.10;99.90
20524;DHT22;10420;48.542;12.270;2023-04-03T11:17:55;7.30;99.90
20524;DHT22;10420;48.542;12.270;2023-04-03T11:23:17;7.60;99.90
20524;DHT22;10420;48.542;12.270;2023-04-03T11:28:21;7.60;99.90
20524;DHT22;10420;48.542;12.270;2023-04-03T11:38:55;7.10;99.90
20524;DHT22;10420;48.542;12.270;2023-04-03T11:44:06;8.30;99.90
20524;DHT22;10420;48.542;12.270;2023-04-03T11:54:48;8.00;99.90
20524;DHT22;10420;48.542;12.270;2023-04-03T11:59:49;8.10;99.90
20524;DHT22;10420;48.542;12.270;2023-04-03T12:05:29;8.80;99.90
20524;DHT22;10420;48.542;12.270;2023-04-03T12:10:30;7.20;99.90
20524;DHT22;10420;48.542;12.270;2023-04-03T12:15:51;7.50;99.90
20524;DHT22;10420;48.542;12.270;2023-04-03T12:20:55;6.60;99.90
20524;DHT22;10420;48.542;12.270;2023-04-03T12:26:05;6.50;99.90
20524;DHT22;10420;48.542;12.270;2023-04-03T12:31:22;6.30;99.90
20524;DHT22;10420;48.542;12.270;2023-04-03T12:36:51;6.60;99.90
20524;DHT22;10420;48.542;12.270;2023-04-03T12:42:16;7.20;99.90
20524;DHT22;10420;48.542;12.270;2023-04-03T12:47:28;7.30;99.90
20524;DHT22;10420;48.542;12.270;2023-04-03T12:52:37;6.80;99.90
20524;DHT22;10420;48.542;12.270;2023-04-03T12:57:40;7.50;99.90
20524;DHT22;10420;48.542;12.270;2023-04-03T13:02:44;7.50;99.70
20524;DHT22;10420;48.542;12.270;2023-04-03T13:08:22;6.10;99.90
20524;DHT22;10420;48.542;12.270;2023-04-03T13:13:16;6.00;99.90
20524;DHT22;10420;48.542;12.270;2023-04-03T13:18:35;6.50;99.90
20524;DHT22;10420;48.542;12.270;2023-04-03T13:23:39;7.00;99.60
20524;DHT22;10420;48.542;12.270;2023-04-03T13:28:41;7.40;99.90
20524;DHT22;10420;48.542;12.270;2023-04-03T13:39:31;7.20;99.90
20524;DHT22;10420;48.542;12.270;2023-04-03T13:44:35;6.70;99.90
20524;DHT22;10420;48.542;12.270;2023-04-03T13:49:39;7.00;99.90
20524;DHT22;10420;48.542;12.270;2023-04-03T13:54:40;7.10;99.90
20524;DHT22;10420;48.542;12.270;2023-04-03T13:59:41;7.50;99.90
20524;DHT22;10420;48.542;12.270;2023-04-03T14:09:45;6.20;99.90
20524;DHT22;10420;48.542;12.270;2023-04-03T14:14:46;6.20;99.90
20524;DHT22;10420;48.542;12.270;2023-04-03T14:19:49;6.30;99.90
20524;DHT22;10420;48.542;12.270;2023-04-03T14:24:50;6.40;99.90
20524;DHT22;10420;48.542;12.270;2023-04-03T14:29:53;6.10;99.90
20524;DHT22;10420;48.542;12.270;2023-04-03T14:34:54;6.10;99.90
20524;DHT22;10420;48.542;12.270;2023-04-03T14:39:57;6.30;99.90
20524;DHT22;10420;48.542;12.270;2023-04-03T14:44:59;6.10;99.90
20524;DHT22;10420;48.542;12.270;2023-04-03T14:50:01;5.70;99.90
20524;DHT22;10420;48.542;12.270;2023-04-03T14:55:07;5.60;99.90
20524;DHT22;10420;48.542;12.270;2023-04-03T15:00:13;5.40;99.90
20524;DHT22;10420;48.542;12.270;2023-04-03T15:05:15;5.30;99.90
20524;DHT22;10420;48.542;12.270;2023-04-03T15:10:23;5.50;99.90
20524;DHT22;10420;48.542;12.270;2023-04-03T15:15:24;5.40;99.90
20524;DHT22;10420;48.542;12.270;2023-04-03T15:20:27;5.50;99.90
20524;DHT22;10420;48.542;12.270;2023-04-03T15:25:28;5.40;99.90
20524;DHT22;10420;48.542;12.270;2023-04-03T15:30:29;5.20;99.90
20524;DHT22;10420;48.542;12.270;2023-04-03T15:35:30;5.20;99.90
20524;DHT22;10420;48.542;12.270;2023-04-03T15:40:30;5.50;99.90
20524;DHT22;10420;48.542;12.270;2023-04-03T15:45:32;5.10;99.90
20524;DHT22;10420;48.542;12.270;2023-04-03T15:50:34;5.00;99.90
20524;DHT22;10420;48.542;12.270;2023-04-03T15:55:37;4.80;99.90
20524;DHT22;10420;48.542;12.270;2023-04-03T16:00:38;5.00;99.90
20524;DHT22;10420;48.542;12.270;2023-04-03T16:05:39;5.00;99.90
20524;DHT22;10420;48.542;12.270;2023-04-03T16:10:40;4.90;99.90
20524;DHT22;10420;48.542;12.270;2023-04-03T16:15:41;4.70;99.90
20524;DHT22;10420;48.542;12.270;2023-04-03T16:20:42;4.70;99.90
20524;DHT22;10420;48.542;12.270;2023-04-03T16:25:44;4.50;99.90
20524;DHT22;10420;48.542;12.270;2023-04-03T16:30:48;4.80;99.90
20524;DHT22;10420;48.542;12.270;2023-04-03T16:35:50;4.90;99.90
20524;DHT22;10420;48.542;12.270;2023-04-03T16:40:51;4.80;99.90
20524;DHT22;10420;48.542;12.270;2023-04-03T16:45:52;4.60;99.90
20524;DHT22;10420;48.542;12.270;2023-04-03T16:50:53;4.50;99.90
20524;DHT22;10420;48.542;12.270;2023-04-03T16:55:56;4.40;99.90
20524;DHT22;10420;48.542;12.270;2023-04-03T17:00:57;4.40;99.90
20524;DHT22;10420;48.542;12.270;2023-04-03T17:05:58;4.30;99.90
20524;DHT22;10420;48.542;12.270;2023-04-03T17:10:59;4.30;99.90
20524;DHT22;10420;48.542;12.270;2023-04-03T17:15:59;4.20;99.90
20524;DHT22;10420;48.542;12.270;2023-04-03T17:21:03;4.20;99.90
20524;DHT22;10420;48.542;12.270;2023-04-03T17:26:05;4.20;99.90
20524;DHT22;10420;48.542;12.270;2023-04-03T17:31:05;3.70;99.90
20524;DHT22;10420;48.542;12.270;2023-04-03T17:36:07;3.80;99.90
20524;DHT22;10420;48.542;12.270;2023-04-03T17:41:08;3.80;99.90
20524;DHT22;10420;48.542;12.270;2023-04-03T17:46:09;3.50;99.90
20524;DHT22;10420;48.542;12.270;2023-04-03T17:51:12;3.40;99.90
20524;DHT22;10420;48.542;12.270;2023-04-03T17:56:18;3.50;99.90
20524;DHT22;10420;48.542;12.270;2023-04-03T18:01:22;3.40;99.90
20524;DHT22;10420;48.542;12.270;2023-04-03T18:06:26;3.30;99.90
20524;DHT22;10420;48.542;12.270;2023-04-03T18:11:27;3.40;99.90
20524;DHT22;10420;48.542;12.270;2023-04-03T18:16:30;3.30;99.90
20524;DHT22;10420;48.542;12.270;2023-04-03T18:21:30;3.20;99.90
20524;DHT22;10420;48.542;12.270;2023-04-03T18:26:31;3.20;99.90
20524;DHT22;10420;48.542;12.270;2023-04-03T18:31:34;3.30;99.90
20524;DHT22;10420;48.542;12.270;2023-04-03T18:36:35;3.20;99.90
20524;DHT22;10420;48.542;12.270;2023-04-03T18:41:36;3.10;99.90
20524;DHT22;10420;48.542;12.270;2023-04-03T18:46:37;3.00;99.90
20524;DHT22;10420;48.542;12.270;2023-04-03T18:51:38;3.00;99.90
20524;DHT22;10420;48.542;12.270;2023-04-03T18:56:39;2.80;99.90
20524;DHT22;10420;48.542;12.270;2023-04-03T19:01:40;2.70;99.90
20524;DHT22;10420;48.542;12.270;2023-04-03T19:06:40;2.60;99.90
20524;DHT22;10420;48.542;12.270;2023-04-03T19:11:41;2.50;99.90
20524;DHT22;10420;48.542;12.270;2023-04-03T19:16:43;2.60;99.90
20524;DHT22;10420;48.542;12.270;2023-04-03T19:21:44;2.40;99.90
20524;DHT22;10420;48.542;12.270;2023-04-03T19:26:44;2.50;99.90
20524;DHT22;10420;48.542;12.270;2023-04-03T19:31:45;2.30;99.90
20524;DHT22;10420;48.542;12.270;2023-04-03T19:36:46;2.20;99.90
20524;DHT22;10420;48.542;12.270;2023-04-03T19:41:48;2.10;99.90
20524;DHT22;10420;48.542;12.270;2023-04-03T19:46:49;2.20;99.90
20524;DHT22;10420;48.542;12.270;2023-04-03T19:51:50;2.00;99.90
20524;DHT22;10420;48.542;12.270;2023-04-03T19:56:50;1.80;99.90
20524;DHT22;10420;48.542;12.270;2023-04-03T20:01:51;1.90;99.90
20524;DHT22;10420;48.542;12.270;2023-04-03T20:06:52;1.70;99.90
20524;DHT22;10420;48.542;12.270;2023-04-03T20:11:53;1.60;99.90
20524;DHT22;10420;48.542;12.270;2023-04-03T20:16:53;1.70;99.90
20524;DHT22;10420;48.542;12.270;2023-04-03T20:21:54;1.70;99.90
20524;DHT22;10420;48.542;12.270;2023-04-03T20:26:55;1.60;99.90
20524;DHT22;10420;48.542;12.270;2023-04-03T20:31:57;1.60;99.90
20524;DHT22;10420;48.542;12.270;2023-04-03T20:36:57;1.40;99.90
20524;DHT22;10420;48.542;12.270;2023-04-03T20:41:58;1.60;99.90
20524;DHT22;10420;48.542;12.270;2023-04-03T20:46:59;1.60;99.90
20524;DHT22;10420;48.542;12.270;2023-04-03T20:52:00;1.60;99.90
20524;DHT22;10420;48.542;12.270;2023-04-03T20:57:01;1.50;99.90
20524;DHT22;10420;48.542;12.270;2023-04-03T21:02:01;1.20;99.90
20524;DHT22;10420;48.542;12.270;2023-04-03T21:23:29;1.10;99.90
20524;DHT22;10420;48.542;12.270;2023-04-03T21:28:30;1.20;99.90
20524;DHT22;10420;48.542;12.270;2023-04-03T21:33:31;1.10;99.90
20524;DHT22;10420;48.542;12.270;2023-04-03T21:38:31;1.00;99.90
20524;DHT22;10420;48.542;12.270;2023-04-03T21:43:34;1.00;99.90
20524;DHT22;10420;48.542;12.270;2023-04-03T21:48:35;1.00;99.90
20524;DHT22;10420;48.542;12.270;2023-04-03T21:53:36;0.90;99.90
20524;DHT22;10420;48.542;12.270;2023-04-03T21:58:37;0.90;99.90
20524;DHT22;10420;48.542;12.270;2023-04-03T22:03:39;0.70;99.90
20524;DHT22;10420;48.542;12.270;2023-04-03T22:08:41;0.60;99.90
20524;DHT22;10420;48.542;12.270;2023-04-03T22:13:42;0.60;99.90
20524;DHT22;10420;48.542;12.270;2023-04-03T22:18:43;0.40;99.90
20524;DHT22;10420;48.542;12.270;2023-04-03T22:23:44;0.30;99.90
20524;DHT22;10420;48.542;12.270;2023-04-03T22:28:46;0.10;99.90
20524;DHT22;10420;48.542;12.270;2023-04-03T22:33:46;0.20;99.90
20524;DHT22;10420;48.542;12.270;2023-04-03T22:38:47;0.50;99.90
20524;DHT22;10420;48.542;12.270;2023-04-03T22:43:48;0.30;99.90
20524;DHT22;10420;48.542;12.270;2023-04-03T22:48:48;0.30;99.90
20524;DHT22;10420;48.542;12.270;2023-04-03T22:53:49;0.40;99.90
20524;DHT22;10420;48.542;12.270;2023-04-03T22:58:49;0.40;99.90
20524;DHT22;10420;48.542;12.270;2023-04-03T23:03:50;0.30;99.90
20524;DHT22;10420;48.542;12.270;2023-04-03T23:08:51;0.20;99.90
20524;DHT22;10420;48.542;12.270;2023-04-03T23:13:52;0.20;99.90
20524;DHT22;10420;48.542;12.270;2023-04-03T23:18:52;0.10;99.90
20524;DHT22;10420;48.542;12.270;2023-04-03T23:23:53;0.10;99.90
20524;DHT22;10420;48.542;12.270;2023-04-03T23:28:53;-0.20;99.90
20524;DHT22;10420;48.542;12.270;2023-04-03T23:33:54;-0.20;99.90
20524;DHT22;10420;48.542;12.270;2023-04-03T23:38:55;-0.20;99.90
20524;DHT22;10420;48.542;12.270;2023-04-03T23:43:56;-0.30;99.90
20524;DHT22;10420;48.542;12.270;2023-04-03T23:48:56;-0.30;99.90
20524;DHT22;10420;48.542;12.270;2023-04-03T23:53:57;-0.20;99.90
20524;DHT22;10420;48.542;12.270;2023-04-03T23:58:58;-0.20;99.90
